Terminal Aerodrome Forecast
Issued by NWS

Home | Current Version | Previous Version | Text Only | Print | Product List | Glossary On
Versions: 1 2 3 4 5 6 7 8 9 10 11 12 13 14 15 16 17 18
000
FTUS42 KTBW 221731
TAFPIE
TAF
KPIE 221731Z 2218/2318 14009KT P6SM SCT040 SCT150
     FM222000 24011KT P6SM SCT045 SCT250
     FM230200 18006KT P6SM FEW050 SCT250
     FM231300 20014KT P6SM SCT030 BKN250=

USA.gov is the U.S. government's official web portal to all federal, state and local government web resources and services.